sensor_id;sensor_type;location;lat;lon;timestamp;P1;durP1;ratioP1;P2;durP2;ratioP2
69152;SDS011;56261;51.580;4.578;2022-07-29T00:00:02;6.00;;;1.75;;
69152;SDS011;56261;51.580;4.578;2022-07-29T00:02:29;5.50;;;1.80;;
69152;SDS011;56261;51.580;4.578;2022-07-29T00:04:56;6.15;;;2.00;;
69152;SDS011;56261;51.580;4.578;2022-07-29T00:07:22;5.00;;;1.80;;
69152;SDS011;56261;51.580;4.578;2022-07-29T00:09:47;5.47;;;2.00;;
69152;SDS011;56261;51.580;4.578;2022-07-29T00:12:13;7.63;;;1.87;;
69152;SDS011;56261;51.580;4.578;2022-07-29T00:14:38;6.83;;;2.17;;
69152;SDS011;56261;51.580;4.578;2022-07-29T00:17:03;7.37;;;1.93;;
69152;SDS011;56261;51.580;4.578;2022-07-29T00:19:29;4.83;;;1.90;;
69152;SDS011;56261;51.580;4.578;2022-07-29T00:21:54;5.68;;;2.05;;
69152;SDS011;56261;51.580;4.578;2022-07-29T00:24:19;6.47;;;1.93;;
69152;SDS011;56261;51.580;4.578;2022-07-29T00:26:45;5.37;;;1.60;;
69152;SDS011;56261;51.580;4.578;2022-07-29T00:29:10;4.90;;;2.00;;
69152;SDS011;56261;51.580;4.578;2022-07-29T00:31:36;6.80;;;1.80;;
69152;SDS011;56261;51.580;4.578;2022-07-29T00:34:01;4.50;;;1.73;;
69152;SDS011;56261;51.580;4.578;2022-07-29T00:36:27;4.93;;;2.10;;
69152;SDS011;56261;51.580;4.578;2022-07-29T00:38:53;4.95;;;1.90;;
69152;SDS011;56261;51.580;4.578;2022-07-29T00:41:18;7.57;;;2.00;;
69152;SDS011;56261;51.580;4.578;2022-07-29T00:43:44;4.70;;;1.90;;
69152;SDS011;56261;51.580;4.578;2022-07-29T00:46:10;4.75;;;2.00;;
69152;SDS011;56261;51.580;4.578;2022-07-29T00:48:36;7.55;;;2.30;;
69152;SDS011;56261;51.580;4.578;2022-07-29T00:51:03;5.88;;;1.95;;
69152;SDS011;56261;51.580;4.578;2022-07-29T00:53:30;6.23;;;1.90;;
69152;SDS011;56261;51.580;4.578;2022-07-29T00:55:57;4.93;;;2.10;;
69152;SDS011;56261;51.580;4.578;2022-07-29T00:58:23;6.55;;;2.30;;
69152;SDS011;56261;51.580;4.578;2022-07-29T01:00:49;5.47;;;2.00;;
69152;SDS011;56261;51.580;4.578;2022-07-29T01:03:15;6.10;;;1.93;;
69152;SDS011;56261;51.580;4.578;2022-07-29T01:05:41;6.10;;;1.88;;
69152;SDS011;56261;51.580;4.578;2022-07-29T01:08:10;5.95;;;1.90;;
69152;SDS011;56261;51.580;4.578;2022-07-29T01:10:36;6.40;;;2.10;;
69152;SDS011;56261;51.580;4.578;2022-07-29T01:13:04;7.97;;;2.30;;
69152;SDS011;56261;51.580;4.578;2022-07-29T01:15:30;6.28;;;2.20;;
69152;SDS011;56261;51.580;4.578;2022-07-29T01:18:06;6.45;;;2.10;;
69152;SDS011;56261;51.580;4.578;2022-07-29T01:23:08;5.57;;;1.93;;
69152;SDS011;56261;51.580;4.578;2022-07-29T01:31:19;8.13;;;2.20;;
69152;SDS011;56261;51.580;4.578;2022-07-29T01:33:49;5.93;;;2.10;;
69152;SDS011;56261;51.580;4.578;2022-07-29T01:36:23;6.70;;;2.42;;
69152;SDS011;56261;51.580;4.578;2022-07-29T01:38:59;5.18;;;1.98;;
69152;SDS011;56261;51.580;4.578;2022-07-29T01:41:31;6.72;;;1.98;;
69152;SDS011;56261;51.580;4.578;2022-07-29T01:44:10;4.80;;;2.03;;
69152;SDS011;56261;51.580;4.578;2022-07-29T01:47:05;7.80;;;2.22;;
69152;SDS011;56261;51.580;4.578;2022-07-29T01:50:00;5.57;;;2.00;;
69152;SDS011;56261;51.580;4.578;2022-07-29T01:55:58;7.25;;;2.30;;
69152;SDS011;56261;51.580;4.578;2022-07-29T01:59:04;7.33;;;2.10;;
69152;SDS011;56261;51.580;4.578;2022-07-29T02:01:56;6.72;;;1.95;;
69152;SDS011;56261;51.580;4.578;2022-07-29T02:04:38;6.13;;;2.10;;
69152;SDS011;56261;51.580;4.578;2022-07-29T02:07:32;5.05;;;2.20;;
69152;SDS011;56261;51.580;4.578;2022-07-29T02:11:00;5.30;;;2.10;;
69152;SDS011;56261;51.580;4.578;2022-07-29T02:13:49;6.50;;;2.30;;
69152;SDS011;56261;51.580;4.578;2022-07-29T02:16:30;8.13;;;2.13;;
69152;SDS011;56261;51.580;4.578;2022-07-29T02:19:03;6.85;;;1.90;;
69152;SDS011;56261;51.580;4.578;2022-07-29T02:21:53;5.60;;;1.80;;
69152;SDS011;56261;51.580;4.578;2022-07-29T02:30:48;6.47;;;2.08;;
69152;SDS011;56261;51.580;4.578;2022-07-29T02:37:05;6.97;;;2.10;;
69152;SDS011;56261;51.580;4.578;2022-07-29T02:40:37;4.82;;;1.95;;
69152;SDS011;56261;51.580;4.578;2022-07-29T02:43:20;7.07;;;2.07;;
69152;SDS011;56261;51.580;4.578;2022-07-29T02:58:32;7.00;;;2.23;;
69152;SDS011;56261;51.580;4.578;2022-07-29T03:01:25;7.18;;;2.40;;
69152;SDS011;56261;51.580;4.578;2022-07-29T03:04:35;7.65;;;2.25;;
69152;SDS011;56261;51.580;4.578;2022-07-29T03:07:24;6.00;;;2.42;;
69152;SDS011;56261;51.580;4.578;2022-07-29T03:10:39;5.70;;;2.30;;
69152;SDS011;56261;51.580;4.578;2022-07-29T03:16:50;6.70;;;2.45;;
69152;SDS011;56261;51.580;4.578;2022-07-29T03:19:49;7.60;;;2.30;;
69152;SDS011;56261;51.580;4.578;2022-07-29T03:22:34;6.65;;;2.58;;
69152;SDS011;56261;51.580;4.578;2022-07-29T03:25:40;5.95;;;2.55;;
69152;SDS011;56261;51.580;4.578;2022-07-29T03:28:19;5.87;;;2.13;;
69152;SDS011;56261;51.580;4.578;2022-07-29T03:31:27;5.88;;;2.20;;
69152;SDS011;56261;51.580;4.578;2022-07-29T03:34:18;6.03;;;2.25;;
69152;SDS011;56261;51.580;4.578;2022-07-29T03:37:12;7.65;;;2.40;;
69152;SDS011;56261;51.580;4.578;2022-07-29T03:39:58;7.38;;;2.28;;
69152;SDS011;56261;51.580;4.578;2022-07-29T03:43:01;4.77;;;2.30;;
69152;SDS011;56261;51.580;4.578;2022-07-29T03:45:49;5.38;;;2.38;;
69152;SDS011;56261;51.580;4.578;2022-07-29T03:48:28;6.63;;;2.40;;
69152;SDS011;56261;51.580;4.578;2022-07-29T03:51:22;7.72;;;2.38;;
69152;SDS011;56261;51.580;4.578;2022-07-29T03:54:17;7.57;;;2.70;;
69152;SDS011;56261;51.580;4.578;2022-07-29T03:57:30;6.87;;;2.80;;
69152;SDS011;56261;51.580;4.578;2022-07-29T04:00:25;6.78;;;2.33;;
69152;SDS011;56261;51.580;4.578;2022-07-29T04:06:40;7.10;;;2.60;;
69152;SDS011;56261;51.580;4.578;2022-07-29T04:09:21;6.35;;;2.22;;
69152;SDS011;56261;51.580;4.578;2022-07-29T04:24:32;7.75;;;2.17;;
69152;SDS011;56261;51.580;4.578;2022-07-29T04:27:16;7.23;;;2.30;;
69152;SDS011;56261;51.580;4.578;2022-07-29T04:30:13;7.72;;;2.40;;
69152;SDS011;56261;51.580;4.578;2022-07-29T04:32:59;7.47;;;2.40;;
69152;SDS011;56261;51.580;4.578;2022-07-29T04:35:58;6.47;;;2.40;;
69152;SDS011;56261;51.580;4.578;2022-07-29T04:38:47;6.95;;;2.50;;
69152;SDS011;56261;51.580;4.578;2022-07-29T04:41:31;5.57;;;2.50;;
69152;SDS011;56261;51.580;4.578;2022-07-29T04:44:39;7.28;;;2.47;;
69152;SDS011;56261;51.580;4.578;2022-07-29T04:57:10;7.90;;;2.80;;
69152;SDS011;56261;51.580;4.578;2022-07-29T05:03:14;6.13;;;2.45;;
69152;SDS011;56261;51.580;4.578;2022-07-29T05:12:18;8.37;;;2.77;;
69152;SDS011;56261;51.580;4.578;2022-07-29T05:14:57;10.00;;;2.95;;
69152;SDS011;56261;51.580;4.578;2022-07-29T05:17:33;9.10;;;3.33;;
69152;SDS011;56261;51.580;4.578;2022-07-29T05:20:23;6.68;;;3.03;;
69152;SDS011;56261;51.580;4.578;2022-07-29T05:23:09;8.93;;;3.33;;
69152;SDS011;56261;51.580;4.578;2022-07-29T05:26:07;9.07;;;3.33;;
69152;SDS011;56261;51.580;4.578;2022-07-29T05:28:38;8.15;;;3.35;;
69152;SDS011;56261;51.580;4.578;2022-07-29T05:31:13;9.07;;;2.95;;
69152;SDS011;56261;51.580;4.578;2022-07-29T05:33:58;7.00;;;2.80;;
69152;SDS011;56261;51.580;4.578;2022-07-29T05:36:27;8.45;;;2.97;;
69152;SDS011;56261;51.580;4.578;2022-07-29T05:39:00;7.33;;;3.13;;
69152;SDS011;56261;51.580;4.578;2022-07-29T05:41:25;7.25;;;3.22;;
69152;SDS011;56261;51.580;4.578;2022-07-29T05:43:58;7.57;;;2.97;;
69152;SDS011;56261;51.580;4.578;2022-07-29T05:46:31;7.43;;;3.10;;
69152;SDS011;56261;51.580;4.578;2022-07-29T05:48:59;7.18;;;2.97;;
69152;SDS011;56261;51.580;4.578;2022-07-29T05:51:34;7.07;;;3.10;;
69152;SDS011;56261;51.580;4.578;2022-07-29T05:54:11;6.43;;;3.65;;
69152;SDS011;56261;51.580;4.578;2022-07-29T05:56:39;9.60;;;3.35;;
69152;SDS011;56261;51.580;4.578;2022-07-29T05:59:08;7.87;;;2.67;;
69152;SDS011;56261;51.580;4.578;2022-07-29T06:01:44;7.35;;;2.67;;
69152;SDS011;56261;51.580;4.578;2022-07-29T06:04:29;8.23;;;2.92;;
69152;SDS011;56261;51.580;4.578;2022-07-29T06:06:56;7.95;;;3.10;;
69152;SDS011;56261;51.580;4.578;2022-07-29T06:09:29;11.80;;;3.33;;
69152;SDS011;56261;51.580;4.578;2022-07-29T06:11:55;8.30;;;3.00;;
69152;SDS011;56261;51.580;4.578;2022-07-29T06:14:20;7.83;;;3.30;;
69152;SDS011;56261;51.580;4.578;2022-07-29T06:16:48;7.70;;;3.40;;
69152;SDS011;56261;51.580;4.578;2022-07-29T06:19:13;6.88;;;3.67;;
69152;SDS011;56261;51.580;4.578;2022-07-29T06:21:50;7.03;;;3.53;;
69152;SDS011;56261;51.580;4.578;2022-07-29T06:24:16;8.07;;;3.30;;
69152;SDS011;56261;51.580;4.578;2022-07-29T06:26:46;8.90;;;3.83;;
69152;SDS011;56261;51.580;4.578;2022-07-29T06:29:11;7.05;;;3.90;;
69152;SDS011;56261;51.580;4.578;2022-07-29T06:31:37;8.40;;;3.37;;
69152;SDS011;56261;51.580;4.578;2022-07-29T06:34:07;11.13;;;3.78;;
69152;SDS011;56261;51.580;4.578;2022-07-29T06:36:51;8.60;;;3.55;;
69152;SDS011;56261;51.580;4.578;2022-07-29T06:39:24;8.43;;;3.22;;
69152;SDS011;56261;51.580;4.578;2022-07-29T06:42:06;11.07;;;3.50;;
69152;SDS011;56261;51.580;4.578;2022-07-29T06:48:18;8.00;;;3.13;;
69152;SDS011;56261;51.580;4.578;2022-07-29T06:54:23;8.88;;;3.40;;
69152;SDS011;56261;51.580;4.578;2022-07-29T07:01:20;8.20;;;3.03;;
69152;SDS011;56261;51.580;4.578;2022-07-29T07:04:16;7.85;;;3.42;;
69152;SDS011;56261;51.580;4.578;2022-07-29T07:06:57;13.35;;;3.58;;
69152;SDS011;56261;51.580;4.578;2022-07-29T07:09:28;7.75;;;3.40;;
69152;SDS011;56261;51.580;4.578;2022-07-29T07:12:11;8.27;;;3.40;;
69152;SDS011;56261;51.580;4.578;2022-07-29T07:14:47;7.20;;;3.28;;
69152;SDS011;56261;51.580;4.578;2022-07-29T07:32:54;10.05;;;4.00;;
69152;SDS011;56261;51.580;4.578;2022-07-29T07:35:46;7.00;;;3.90;;
69152;SDS011;56261;51.580;4.578;2022-07-29T07:41:28;9.80;;;3.95;;
69152;SDS011;56261;51.580;4.578;2022-07-29T07:44:35;9.20;;;4.10;;
69152;SDS011;56261;51.580;4.578;2022-07-29T07:47:10;7.88;;;4.18;;
69152;SDS011;56261;51.580;4.578;2022-07-29T07:49:36;6.47;;;4.00;;
69152;SDS011;56261;51.580;4.578;2022-07-29T07:52:02;7.37;;;4.40;;
69152;SDS011;56261;51.580;4.578;2022-07-29T07:54:30;7.50;;;4.28;;
69152;SDS011;56261;51.580;4.578;2022-07-29T07:56:58;7.93;;;4.40;;
69152;SDS011;56261;51.580;4.578;2022-07-29T07:59:31;7.45;;;4.68;;
69152;SDS011;56261;51.580;4.578;2022-07-29T08:02:00;9.50;;;4.70;;
69152;SDS011;56261;51.580;4.578;2022-07-29T08:04:27;7.07;;;4.07;;
69152;SDS011;56261;51.580;4.578;2022-07-29T08:06:53;8.38;;;4.20;;
69152;SDS011;56261;51.580;4.578;2022-07-29T08:09:21;8.87;;;4.20;;
69152;SDS011;56261;51.580;4.578;2022-07-29T08:11:50;10.80;;;4.70;;
69152;SDS011;56261;51.580;4.578;2022-07-29T08:14:19;12.15;;;4.78;;
69152;SDS011;56261;51.580;4.578;2022-07-29T08:16:48;9.57;;;4.90;;
69152;SDS011;56261;51.580;4.578;2022-07-29T08:19:42;7.88;;;5.03;;
69152;SDS011;56261;51.580;4.578;2022-07-29T08:22:38;11.25;;;6.30;;
69152;SDS011;56261;51.580;4.578;2022-07-29T08:38:25;8.57;;;5.07;;
69152;SDS011;56261;51.580;4.578;2022-07-29T08:41:26;7.80;;;5.00;;
69152;SDS011;56261;51.580;4.578;2022-07-29T08:44:00;9.55;;;4.70;;
69152;SDS011;56261;51.580;4.578;2022-07-29T08:47:08;7.97;;;4.60;;
69152;SDS011;56261;51.580;4.578;2022-07-29T08:53:20;8.57;;;4.60;;
69152;SDS011;56261;51.580;4.578;2022-07-29T09:07:22;6.88;;;3.42;;
69152;SDS011;56261;51.580;4.578;2022-07-29T09:10:40;8.00;;;3.95;;
69152;SDS011;56261;51.580;4.578;2022-07-29T09:16:55;7.50;;;4.00;;
69152;SDS011;56261;51.580;4.578;2022-07-29T09:22:43;10.70;;;4.50;;
69152;SDS011;56261;51.580;4.578;2022-07-29T09:25:17;7.80;;;4.10;;
69152;SDS011;56261;51.580;4.578;2022-07-29T09:29:00;10.07;;;4.53;;
69152;SDS011;56261;51.580;4.578;2022-07-29T09:31:36;9.80;;;4.60;;
69152;SDS011;56261;51.580;4.578;2022-07-29T09:38:11;10.27;;;4.55;;
69152;SDS011;56261;51.580;4.578;2022-07-29T09:40:59;11.05;;;4.60;;
69152;SDS011;56261;51.580;4.578;2022-07-29T09:43:32;7.95;;;4.20;;
69152;SDS011;56261;51.580;4.578;2022-07-29T09:46:31;9.73;;;4.30;;
69152;SDS011;56261;51.580;4.578;2022-07-29T09:49:59;10.80;;;4.60;;
69152;SDS011;56261;51.580;4.578;2022-07-29T10:10:04;10.88;;;3.90;;
69152;SDS011;56261;51.580;4.578;2022-07-29T10:13:04;7.45;;;3.55;;
69152;SDS011;56261;51.580;4.578;2022-07-29T10:16:12;8.00;;;3.25;;
69152;SDS011;56261;51.580;4.578;2022-07-29T10:19:07;9.63;;;3.47;;
69152;SDS011;56261;51.580;4.578;2022-07-29T10:25:19;7.50;;;3.80;;
69152;SDS011;56261;51.580;4.578;2022-07-29T10:28:33;9.02;;;3.92;;
69152;SDS011;56261;51.580;4.578;2022-07-29T10:31:38;8.18;;;3.40;;
69152;SDS011;56261;51.580;4.578;2022-07-29T10:47:41;7.03;;;3.60;;
69152;SDS011;56261;51.580;4.578;2022-07-29T10:53:21;8.90;;;3.70;;
69152;SDS011;56261;51.580;4.578;2022-07-29T11:09:15;6.63;;;2.77;;
69152;SDS011;56261;51.580;4.578;2022-07-29T11:11:56;9.15;;;3.20;;
69152;SDS011;56261;51.580;4.578;2022-07-29T11:15:17;6.25;;;2.67;;
69152;SDS011;56261;51.580;4.578;2022-07-29T11:20:42;10.10;;;3.58;;
69152;SDS011;56261;51.580;4.578;2022-07-29T11:23:54;6.50;;;2.60;;
69152;SDS011;56261;51.580;4.578;2022-07-29T11:27:20;6.00;;;2.70;;
69152;SDS011;56261;51.580;4.578;2022-07-29T11:50:50;8.02;;;2.72;;
69152;SDS011;56261;51.580;4.578;2022-07-29T11:53:49;6.30;;;2.75;;
69152;SDS011;56261;51.580;4.578;2022-07-29T11:59:50;9.75;;;3.05;;
69152;SDS011;56261;51.580;4.578;2022-07-29T12:03:00;8.63;;;2.85;;
69152;SDS011;56261;51.580;4.578;2022-07-29T12:15:23;7.25;;;2.85;;
69152;SDS011;56261;51.580;4.578;2022-07-29T12:18:47;8.32;;;2.72;;
69152;SDS011;56261;51.580;4.578;2022-07-29T12:25:13;7.72;;;2.72;;
69152;SDS011;56261;51.580;4.578;2022-07-29T12:31:28;8.55;;;2.78;;
69152;SDS011;56261;51.580;4.578;2022-07-29T12:38:09;7.03;;;2.53;;
69152;SDS011;56261;51.580;4.578;2022-07-29T12:51:42;8.63;;;3.40;;
69152;SDS011;56261;51.580;4.578;2022-07-29T13:30:05;11.13;;;3.00;;
69152;SDS011;56261;51.580;4.578;2022-07-29T13:32:32;8.52;;;3.50;;
69152;SDS011;56261;51.580;4.578;2022-07-29T13:35:05;8.43;;;3.47;;
69152;SDS011;56261;51.580;4.578;2022-07-29T13:37:33;7.78;;;3.40;;
69152;SDS011;56261;51.580;4.578;2022-07-29T13:40:03;7.47;;;3.60;;
69152;SDS011;56261;51.580;4.578;2022-07-29T13:42:30;8.07;;;3.63;;
69152;SDS011;56261;51.580;4.578;2022-07-29T13:44:56;8.45;;;3.42;;
69152;SDS011;56261;51.580;4.578;2022-07-29T13:47:22;8.93;;;3.78;;
69152;SDS011;56261;51.580;4.578;2022-07-29T13:49:48;9.87;;;3.20;;
69152;SDS011;56261;51.580;4.578;2022-07-29T13:52:14;8.13;;;3.10;;
69152;SDS011;56261;51.580;4.578;2022-07-29T13:54:40;8.30;;;3.83;;
69152;SDS011;56261;51.580;4.578;2022-07-29T13:57:06;7.67;;;3.33;;
69152;SDS011;56261;51.580;4.578;2022-07-29T13:59:32;12.88;;;4.28;;
69152;SDS011;56261;51.580;4.578;2022-07-29T14:01:58;10.70;;;4.45;;
69152;SDS011;56261;51.580;4.578;2022-07-29T14:04:23;8.17;;;3.90;;
69152;SDS011;56261;51.580;4.578;2022-07-29T14:06:49;9.53;;;4.60;;
69152;SDS011;56261;51.580;4.578;2022-07-29T14:09:15;10.30;;;4.40;;
69152;SDS011;56261;51.580;4.578;2022-07-29T14:11:40;9.70;;;3.90;;
69152;SDS011;56261;51.580;4.578;2022-07-29T14:14:06;9.73;;;4.20;;
69152;SDS011;56261;51.580;4.578;2022-07-29T14:16:32;9.00;;;4.27;;
69152;SDS011;56261;51.580;4.578;2022-07-29T14:18:57;7.75;;;3.58;;
69152;SDS011;56261;51.580;4.578;2022-07-29T14:21:23;9.83;;;4.97;;
69152;SDS011;56261;51.580;4.578;2022-07-29T14:23:48;10.33;;;4.43;;
69152;SDS011;56261;51.580;4.578;2022-07-29T14:26:14;9.30;;;4.47;;
69152;SDS011;56261;51.580;4.578;2022-07-29T14:28:39;15.07;;;4.25;;
69152;SDS011;56261;51.580;4.578;2022-07-29T14:31:05;11.10;;;4.03;;
69152;SDS011;56261;51.580;4.578;2022-07-29T14:33:30;11.07;;;4.40;;
69152;SDS011;56261;51.580;4.578;2022-07-29T14:35:55;8.77;;;4.00;;
69152;SDS011;56261;51.580;4.578;2022-07-29T14:38:21;10.35;;;3.88;;
69152;SDS011;56261;51.580;4.578;2022-07-29T14:40:46;8.00;;;4.10;;
69152;SDS011;56261;51.580;4.578;2022-07-29T14:43:12;10.03;;;3.70;;
69152;SDS011;56261;51.580;4.578;2022-07-29T14:45:38;8.60;;;3.20;;
69152;SDS011;56261;51.580;4.578;2022-07-29T14:48:04;8.80;;;3.70;;
69152;SDS011;56261;51.580;4.578;2022-07-29T14:50:30;9.63;;;3.13;;
69152;SDS011;56261;51.580;4.578;2022-07-29T14:52:55;12.90;;;3.25;;
69152;SDS011;56261;51.580;4.578;2022-07-29T14:55:21;12.23;;;3.47;;
69152;SDS011;56261;51.580;4.578;2022-07-29T14:57:47;8.33;;;3.40;;
69152;SDS011;56261;51.580;4.578;2022-07-29T15:00:12;7.47;;;3.35;;
69152;SDS011;56261;51.580;4.578;2022-07-29T15:02:38;10.15;;;3.42;;
69152;SDS011;56261;51.580;4.578;2022-07-29T15:05:04;9.40;;;3.63;;
69152;SDS011;56261;51.580;4.578;2022-07-29T15:07:30;7.90;;;3.40;;
69152;SDS011;56261;51.580;4.578;2022-07-29T15:09:55;7.07;;;2.90;;
69152;SDS011;56261;51.580;4.578;2022-07-29T15:12:20;7.57;;;3.13;;
69152;SDS011;56261;51.580;4.578;2022-07-29T15:14:46;6.63;;;2.90;;
69152;SDS011;56261;51.580;4.578;2022-07-29T15:17:11;8.60;;;3.13;;
69152;SDS011;56261;51.580;4.578;2022-07-29T15:19:37;7.65;;;3.00;;
69152;SDS011;56261;51.580;4.578;2022-07-29T15:22:02;9.40;;;3.63;;
69152;SDS011;56261;51.580;4.578;2022-07-29T15:24:29;7.93;;;3.10;;
69152;SDS011;56261;51.580;4.578;2022-07-29T15:26:55;7.13;;;3.20;;
69152;SDS011;56261;51.580;4.578;2022-07-29T15:29:20;7.53;;;3.10;;
69152;SDS011;56261;51.580;4.578;2022-07-29T15:31:46;9.57;;;3.90;;
69152;SDS011;56261;51.580;4.578;2022-07-29T15:34:12;11.43;;;3.15;;
69152;SDS011;56261;51.580;4.578;2022-07-29T15:36:38;7.60;;;3.37;;
69152;SDS011;56261;51.580;4.578;2022-07-29T15:39:03;7.53;;;3.30;;
69152;SDS011;56261;51.580;4.578;2022-07-29T15:41:29;9.03;;;3.50;;
69152;SDS011;56261;51.580;4.578;2022-07-29T15:43:54;10.63;;;3.40;;
69152;SDS011;56261;51.580;4.578;2022-07-29T15:46:20;7.55;;;3.10;;
69152;SDS011;56261;51.580;4.578;2022-07-29T15:49:04;7.87;;;3.03;;
69152;SDS011;56261;51.580;4.578;2022-07-29T15:51:31;9.32;;;2.90;;
69152;SDS011;56261;51.580;4.578;2022-07-29T15:53:57;9.20;;;2.65;;
69152;SDS011;56261;51.580;4.578;2022-07-29T15:56:23;9.57;;;3.40;;
69152;SDS011;56261;51.580;4.578;2022-07-29T15:58:49;8.02;;;3.40;;
69152;SDS011;56261;51.580;4.578;2022-07-29T16:01:14;9.52;;;3.40;;
69152;SDS011;56261;51.580;4.578;2022-07-29T16:03:40;8.90;;;3.17;;
69152;SDS011;56261;51.580;4.578;2022-07-29T16:06:05;6.77;;;2.50;;
69152;SDS011;56261;51.580;4.578;2022-07-29T16:08:31;10.55;;;2.95;;
69152;SDS011;56261;51.580;4.578;2022-07-29T16:10:56;7.60;;;2.70;;
69152;SDS011;56261;51.580;4.578;2022-07-29T16:13:22;6.87;;;2.90;;
69152;SDS011;56261;51.580;4.578;2022-07-29T16:15:47;6.85;;;2.97;;
69152;SDS011;56261;51.580;4.578;2022-07-29T16:18:13;8.60;;;2.90;;
69152;SDS011;56261;51.580;4.578;2022-07-29T16:20:39;8.70;;;2.90;;
69152;SDS011;56261;51.580;4.578;2022-07-29T16:23:04;6.93;;;3.05;;
69152;SDS011;56261;51.580;4.578;2022-07-29T16:25:31;6.95;;;2.92;;
69152;SDS011;56261;51.580;4.578;2022-07-29T16:27:57;5.63;;;2.53;;
69152;SDS011;56261;51.580;4.578;2022-07-29T16:30:22;6.23;;;2.80;;
69152;SDS011;56261;51.580;4.578;2022-07-29T16:32:48;10.20;;;3.45;;
69152;SDS011;56261;51.580;4.578;2022-07-29T16:35:13;5.90;;;2.80;;
69152;SDS011;56261;51.580;4.578;2022-07-29T16:37:38;8.93;;;2.80;;
69152;SDS011;56261;51.580;4.578;2022-07-29T16:40:04;8.70;;;2.47;;
69152;SDS011;56261;51.580;4.578;2022-07-29T16:42:31;8.00;;;3.10;;
69152;SDS011;56261;51.580;4.578;2022-07-29T16:44:57;7.85;;;2.80;;
69152;SDS011;56261;51.580;4.578;2022-07-29T16:47:22;6.20;;;2.80;;
69152;SDS011;56261;51.580;4.578;2022-07-29T16:49:48;5.33;;;2.63;;
69152;SDS011;56261;51.580;4.578;2022-07-29T16:52:14;8.48;;;2.75;;
69152;SDS011;56261;51.580;4.578;2022-07-29T16:54:39;8.80;;;2.80;;
69152;SDS011;56261;51.580;4.578;2022-07-29T16:57:06;7.53;;;2.70;;
69152;SDS011;56261;51.580;4.578;2022-07-29T16:59:32;6.82;;;2.50;;
69152;SDS011;56261;51.580;4.578;2022-07-29T17:01:57;8.07;;;3.00;;
69152;SDS011;56261;51.580;4.578;2022-07-29T17:04:23;9.10;;;3.33;;
69152;SDS011;56261;51.580;4.578;2022-07-29T17:06:48;9.67;;;2.77;;
69152;SDS011;56261;51.580;4.578;2022-07-29T17:09:14;6.93;;;2.80;;
69152;SDS011;56261;51.580;4.578;2022-07-29T17:11:40;7.03;;;2.63;;
69152;SDS011;56261;51.580;4.578;2022-07-29T17:14:07;6.18;;;2.47;;
69152;SDS011;56261;51.580;4.578;2022-07-29T17:16:33;7.83;;;2.47;;
69152;SDS011;56261;51.580;4.578;2022-07-29T17:18:58;7.30;;;2.67;;
69152;SDS011;56261;51.580;4.578;2022-07-29T17:21:24;8.63;;;2.60;;
69152;SDS011;56261;51.580;4.578;2022-07-29T17:23:50;8.53;;;2.67;;
69152;SDS011;56261;51.580;4.578;2022-07-29T17:26:16;7.57;;;2.80;;
69152;SDS011;56261;51.580;4.578;2022-07-29T17:28:42;6.55;;;3.00;;
69152;SDS011;56261;51.580;4.578;2022-07-29T17:31:08;7.30;;;2.00;;
69152;SDS011;56261;51.580;4.578;2022-07-29T17:33:34;10.50;;;2.90;;
69152;SDS011;56261;51.580;4.578;2022-07-29T17:36:00;8.90;;;2.58;;
69152;SDS011;56261;51.580;4.578;2022-07-29T17:38:44;7.43;;;2.35;;
69152;SDS011;56261;51.580;4.578;2022-07-29T17:41:10;7.87;;;2.73;;
69152;SDS011;56261;51.580;4.578;2022-07-29T17:43:35;10.67;;;2.90;;
69152;SDS011;56261;51.580;4.578;2022-07-29T17:46:01;6.20;;;2.50;;
69152;SDS011;56261;51.580;4.578;2022-07-29T17:48:27;8.60;;;2.72;;
69152;SDS011;56261;51.580;4.578;2022-07-29T17:50:52;6.90;;;2.80;;
69152;SDS011;56261;51.580;4.578;2022-07-29T17:53:17;7.37;;;2.60;;
69152;SDS011;56261;51.580;4.578;2022-07-29T17:55:43;10.00;;;2.80;;
69152;SDS011;56261;51.580;4.578;2022-07-29T17:58:09;11.70;;;2.83;;
69152;SDS011;56261;51.580;4.578;2022-07-29T18:00:35;7.80;;;2.60;;
69152;SDS011;56261;51.580;4.578;2022-07-29T18:03:01;10.77;;;2.80;;
69152;SDS011;56261;51.580;4.578;2022-07-29T18:05:26;9.70;;;2.88;;
69152;SDS011;56261;51.580;4.578;2022-07-29T18:07:52;8.90;;;2.50;;
69152;SDS011;56261;51.580;4.578;2022-07-29T18:10:20;6.90;;;2.67;;
69152;SDS011;56261;51.580;4.578;2022-07-29T18:12:46;8.70;;;2.70;;
69152;SDS011;56261;51.580;4.578;2022-07-29T18:15:11;8.37;;;2.53;;
69152;SDS011;56261;51.580;4.578;2022-07-29T18:17:37;9.80;;;2.85;;
69152;SDS011;56261;51.580;4.578;2022-07-29T18:20:03;8.93;;;3.43;;
69152;SDS011;56261;51.580;4.578;2022-07-29T18:22:30;9.15;;;2.80;;
69152;SDS011;56261;51.580;4.578;2022-07-29T18:24:55;8.90;;;2.60;;
69152;SDS011;56261;51.580;4.578;2022-07-29T18:27:21;7.13;;;2.30;;
69152;SDS011;56261;51.580;4.578;2022-07-29T18:29:46;8.27;;;2.40;;
69152;SDS011;56261;51.580;4.578;2022-07-29T18:32:12;9.63;;;2.65;;
69152;SDS011;56261;51.580;4.578;2022-07-29T18:34:37;10.63;;;2.67;;
69152;SDS011;56261;51.580;4.578;2022-07-29T18:37:03;6.93;;;2.30;;
69152;SDS011;56261;51.580;4.578;2022-07-29T18:39:28;6.07;;;2.20;;
69152;SDS011;56261;51.580;4.578;2022-07-29T18:41:54;9.33;;;2.60;;
69152;SDS011;56261;51.580;4.578;2022-07-29T18:44:19;7.23;;;2.40;;
69152;SDS011;56261;51.580;4.578;2022-07-29T18:46:45;10.68;;;2.50;;
69152;SDS011;56261;51.580;4.578;2022-07-29T18:49:11;12.43;;;2.50;;
69152;SDS011;56261;51.580;4.578;2022-07-29T18:51:37;7.18;;;2.30;;
69152;SDS011;56261;51.580;4.578;2022-07-29T18:54:03;9.53;;;2.50;;
69152;SDS011;56261;51.580;4.578;2022-07-29T18:56:30;5.97;;;2.20;;
69152;SDS011;56261;51.580;4.578;2022-07-29T18:58:56;7.00;;;2.50;;
69152;SDS011;56261;51.580;4.578;2022-07-29T19:01:22;12.65;;;2.35;;
69152;SDS011;56261;51.580;4.578;2022-07-29T19:03:48;7.88;;;2.50;;
69152;SDS011;56261;51.580;4.578;2022-07-29T19:06:13;8.07;;;2.80;;
69152;SDS011;56261;51.580;4.578;2022-07-29T19:08:39;10.65;;;2.50;;
69152;SDS011;56261;51.580;4.578;2022-07-29T19:11:05;9.17;;;2.40;;
69152;SDS011;56261;51.580;4.578;2022-07-29T19:13:31;5.97;;;2.25;;
69152;SDS011;56261;51.580;4.578;2022-07-29T19:15:57;9.00;;;2.50;;
69152;SDS011;56261;51.580;4.578;2022-07-29T19:18:23;8.90;;;2.30;;
69152;SDS011;56261;51.580;4.578;2022-07-29T19:20:49;8.50;;;2.35;;
69152;SDS011;56261;51.580;4.578;2022-07-29T19:23:14;8.50;;;2.30;;
69152;SDS011;56261;51.580;4.578;2022-07-29T19:25:41;8.93;;;2.70;;
69152;SDS011;56261;51.580;4.578;2022-07-29T19:28:06;8.50;;;2.50;;
69152;SDS011;56261;51.580;4.578;2022-07-29T19:30:32;11.50;;;3.37;;
69152;SDS011;56261;51.580;4.578;2022-07-29T19:32:57;13.68;;;4.00;;
69152;SDS011;56261;51.580;4.578;2022-07-29T19:35:23;10.47;;;3.97;;
69152;SDS011;56261;51.580;4.578;2022-07-29T19:37:52;12.23;;;4.20;;
69152;SDS011;56261;51.580;4.578;2022-07-29T19:40:20;12.48;;;4.90;;
69152;SDS011;56261;51.580;4.578;2022-07-29T19:42:46;9.35;;;3.53;;
69152;SDS011;56261;51.580;4.578;2022-07-29T19:45:17;12.30;;;3.30;;
69152;SDS011;56261;51.580;4.578;2022-07-29T19:47:43;8.18;;;3.30;;
69152;SDS011;56261;51.580;4.578;2022-07-29T19:50:09;9.07;;;2.80;;
69152;SDS011;56261;51.580;4.578;2022-07-29T19:52:34;9.13;;;2.90;;
69152;SDS011;56261;51.580;4.578;2022-07-29T19:55:00;12.30;;;3.70;;
69152;SDS011;56261;51.580;4.578;2022-07-29T19:57:26;10.90;;;4.28;;
69152;SDS011;56261;51.580;4.578;2022-07-29T19:59:52;10.50;;;4.50;;
69152;SDS011;56261;51.580;4.578;2022-07-29T20:02:17;21.33;;;4.50;;
69152;SDS011;56261;51.580;4.578;2022-07-29T20:04:43;14.73;;;5.90;;
69152;SDS011;56261;51.580;4.578;2022-07-29T20:07:08;13.83;;;5.57;;
69152;SDS011;56261;51.580;4.578;2022-07-29T20:09:35;13.88;;;5.50;;
69152;SDS011;56261;51.580;4.578;2022-07-29T20:12:00;13.63;;;5.87;;
69152;SDS011;56261;51.580;4.578;2022-07-29T20:14:26;16.85;;;6.97;;